createdAt,value
2018-03-19T00:00:43.892Z,-0.58
2018-03-19T00:01:43.848Z,-0.58
2018-03-19T00:02:43.899Z,-0.54
2018-03-19T00:03:43.815Z,-0.64
2018-03-19T00:04:43.797Z,-0.61
2018-03-19T00:05:43.769Z,-0.62
2018-03-19T00:06:43.746Z,-0.58
2018-03-19T00:07:43.734Z,-0.57
2018-03-19T00:08:43.720Z,-0.55
2018-03-19T00:09:43.752Z,-0.58
2018-03-19T00:10:43.670Z,-0.62
2018-03-19T00:11:43.647Z,-0.57
2018-03-19T00:12:43.634Z,-0.60
2018-03-19T00:13:43.614Z,-0.55
2018-03-19T00:14:43.589Z,-0.60
2018-03-19T00:15:43.579Z,-0.65
2018-03-19T00:16:43.544Z,-0.58
2018-03-19T00:17:43.530Z,-0.62
2018-03-19T00:18:43.511Z,-0.65
2018-03-19T00:19:43.491Z,-0.55
2018-03-19T00:20:43.481Z,-0.61
2018-03-19T00:21:43.445Z,-0.61
2018-03-19T00:22:43.426Z,-0.64
2018-03-19T00:23:43.413Z,-0.62
2018-03-19T00:24:43.388Z,-0.62
2018-03-19T00:25:43.402Z,-0.73
2018-03-19T00:26:43.401Z,-0.82
2018-03-19T00:27:43.316Z,-0.80
2018-03-19T00:28:43.311Z,-0.78
2018-03-19T00:29:43.278Z,-0.75
2018-03-19T00:30:43.260Z,-0.75
2018-03-19T00:31:43.230Z,-0.79
2018-03-19T00:32:43.224Z,-0.76
2018-03-19T00:33:43.196Z,-0.75
2018-03-19T00:34:43.184Z,-0.75
2018-03-19T00:35:43.156Z,-0.75
2018-03-19T00:36:43.143Z,-0.72
2018-03-19T00:37:43.177Z,-0.72
2018-03-19T00:38:43.089Z,-0.75
2018-03-19T00:39:43.077Z,-0.79
2018-03-19T00:40:43.054Z,-0.76
2018-03-19T00:41:43.042Z,-0.76
2018-03-19T00:42:43.023Z,-0.72
2018-03-19T00:43:43.045Z,-0.73
2018-03-19T00:44:42.968Z,-0.73
2018-03-19T00:45:42.948Z,-0.73
2018-03-19T00:46:42.932Z,-0.76
2018-03-19T00:47:42.913Z,-0.76
2018-03-19T00:48:42.889Z,-0.75
2018-03-19T00:49:42.905Z,-0.82
2018-03-19T00:50:42.879Z,-0.79
2018-03-19T00:51:42.841Z,-0.89
2018-03-19T00:52:42.804Z,-0.92
2018-03-19T00:53:42.785Z,-0.89
2018-03-19T00:54:42.776Z,-0.78
2018-03-19T00:55:45.051Z,-0.80
2018-03-19T00:56:42.730Z,-0.92
2018-03-19T00:57:42.693Z,-0.79
2018-03-19T00:58:42.684Z,-0.89
2018-03-19T00:59:42.658Z,-0.86
2018-03-19T01:00:42.706Z,-0.89
2018-03-19T01:01:42.622Z,-0.89
2018-03-19T01:02:42.603Z,-0.89
2018-03-19T01:03:43.514Z,-0.85
2018-03-19T01:04:42.553Z,-0.94
2018-03-19T01:05:42.540Z,-0.94
2018-03-19T01:06:42.558Z,-0.89
2018-03-19T01:07:42.546Z,-0.95
2018-03-19T01:08:42.467Z,-0.89
2018-03-19T01:09:42.470Z,-0.98
2018-03-19T01:10:42.444Z,-0.99
2018-03-19T01:11:42.416Z,-0.97
2018-03-19T01:12:42.390Z,-0.92
2018-03-19T01:13:42.408Z,-0.99
2018-03-19T01:14:42.350Z,-0.97
2018-03-19T01:15:42.421Z,-0.99
2018-03-19T01:16:42.313Z,-0.97
2018-03-19T01:17:42.287Z,-0.98
2018-03-19T01:18:42.282Z,-0.99
2018-03-19T01:19:42.522Z,-1.01
2018-03-19T01:20:42.235Z,-0.97
2018-03-19T01:21:42.216Z,-0.80
2018-03-19T01:22:42.184Z,-0.86
2018-03-19T01:23:42.170Z,-0.95
2018-03-19T01:24:42.162Z,-1.02
2018-03-19T01:25:43.108Z,-0.97
2018-03-19T01:26:42.115Z,-0.99
2018-03-19T01:27:42.089Z,-0.98
2018-03-19T01:28:42.064Z,-1.04
2018-03-19T01:29:42.077Z,-1.04
2018-03-19T01:30:42.054Z,-0.92
2018-03-19T01:31:41.992Z,-1.02
2018-03-19T01:32:42.500Z,-0.99
2018-03-19T01:33:41.962Z,-1.05
2018-03-19T01:34:41.940Z,-1.05
2018-03-19T01:35:41.968Z,-1.10
2018-03-19T01:36:41.928Z,-1.07
2018-03-19T01:37:41.873Z,-1.02
2018-03-19T01:38:41.852Z,-1.01
2018-03-19T01:39:41.913Z,-1.02
2018-03-19T01:40:41.819Z,-1.04
2018-03-19T01:41:41.797Z,-0.94
2018-03-19T01:42:41.774Z,-1.02
2018-03-19T01:43:41.765Z,-1.01
2018-03-19T01:44:42.507Z,-0.95
2018-03-19T01:45:41.772Z,-0.99
2018-03-19T01:46:41.689Z,-0.95
2018-03-19T01:47:41.664Z,-0.97
2018-03-19T01:48:41.666Z,-1.05
2018-03-19T01:49:41.622Z,-1.04
2018-03-19T01:50:41.606Z,-0.95
2018-03-19T01:51:41.606Z,-0.94
2018-03-19T01:52:41.597Z,-0.95
2018-03-19T01:53:41.537Z,-1.02
2018-03-19T01:54:41.521Z,-1.02
2018-03-19T01:55:41.514Z,-1.07
2018-03-19T01:56:41.545Z,-1.01
2018-03-19T01:57:41.467Z,-1.05
2018-03-19T01:58:41.445Z,-1.10
2018-03-19T01:59:41.427Z,-1.07
2018-03-19T02:00:41.405Z,-1.19
2018-03-19T02:01:41.378Z,-1.12
2018-03-19T02:02:41.363Z,-1.19
2018-03-19T02:03:41.359Z,-1.17
2018-03-19T02:04:41.343Z,-1.17
2018-03-19T02:05:42.008Z,-1.20
2018-03-19T02:06:41.281Z,-1.25
2018-03-19T02:07:41.314Z,-1.27
2018-03-19T02:08:41.229Z,-1.25
2018-03-19T02:09:41.205Z,-1.22
2018-03-19T02:10:41.199Z,-1.15
2018-03-19T02:11:41.181Z,-1.19
2018-03-19T02:12:41.151Z,-1.13
2018-03-19T02:13:41.160Z,-1.15
2018-03-19T02:14:41.114Z,-1.25
2018-03-19T02:15:41.103Z,-1.27
2018-03-19T02:16:41.066Z,-1.25
2018-03-19T02:17:41.044Z,-1.22
2018-03-19T02:18:41.033Z,-1.20
2018-03-19T02:19:40.999Z,-1.25
2018-03-19T02:20:41.147Z,-1.16
2018-03-19T02:21:40.956Z,-1.28
2018-03-19T02:22:40.947Z,-1.19
2018-03-19T02:23:40.955Z,-1.22
2018-03-19T02:24:41.024Z,-1.28
2018-03-19T02:25:41.065Z,-1.27
2018-03-19T02:26:40.868Z,-1.22
2018-03-19T02:27:40.839Z,-1.28
2018-03-19T02:28:40.819Z,-1.23
2018-03-19T02:29:40.796Z,-1.31
2018-03-19T02:30:40.803Z,-1.27
2018-03-19T02:31:40.761Z,-1.25
2018-03-19T02:32:41.502Z,-1.20
2018-03-19T02:33:40.705Z,-1.31
2018-03-19T02:34:40.699Z,-1.22
2018-03-19T02:35:40.778Z,-1.28
2018-03-19T02:36:40.654Z,-1.22
2018-03-19T02:37:40.634Z,-1.35
2018-03-19T02:38:40.605Z,-1.17
2018-03-19T02:39:40.595Z,-1.28
2018-03-19T02:40:40.572Z,-1.31
2018-03-19T02:41:40.551Z,-1.30
2018-03-19T02:42:40.521Z,-1.31
2018-03-19T02:43:40.500Z,-1.23
2018-03-19T02:44:40.486Z,-1.33
2018-03-19T02:45:40.453Z,-1.31
2018-03-19T02:46:40.513Z,-1.19
2018-03-19T02:47:40.427Z,-1.23
2018-03-19T02:48:40.404Z,-1.23
2018-03-19T02:49:40.376Z,-1.30
2018-03-19T02:50:40.372Z,-1.23
2018-03-19T02:51:40.332Z,-1.38
2018-03-19T02:52:40.367Z,-1.27
2018-03-19T02:53:40.298Z,-1.38
2018-03-19T02:54:40.278Z,-1.31
2018-03-19T02:55:40.255Z,-1.35
2018-03-19T02:56:41.013Z,-1.34
2018-03-19T02:57:40.215Z,-1.37
2018-03-19T02:58:40.187Z,-1.38
2018-03-19T02:59:40.170Z,-1.35
2018-03-19T03:00:40.148Z,-1.37
2018-03-19T03:01:40.138Z,-1.35
2018-03-19T03:02:40.150Z,-1.41
2018-03-19T03:03:40.078Z,-1.49
2018-03-19T03:04:40.085Z,-1.37
2018-03-19T03:05:40.041Z,-1.46
2018-03-19T03:06:40.029Z,-1.48
2018-03-19T03:07:39.998Z,-1.48
2018-03-19T03:08:40.000Z,-1.27
2018-03-19T03:09:39.961Z,-1.37
2018-03-19T03:10:39.943Z,-1.35
2018-03-19T03:11:39.935Z,-1.48
2018-03-19T03:12:39.901Z,-1.45
2018-03-19T03:13:39.875Z,-1.52
2018-03-19T03:14:39.858Z,-1.45
2018-03-19T03:15:39.870Z,-1.40
2018-03-19T03:16:39.814Z,-1.38
2018-03-19T03:17:39.789Z,-1.52
2018-03-19T03:18:39.771Z,-1.49
2018-03-19T03:19:39.781Z,-1.56
2018-03-19T03:20:39.732Z,-1.59
2018-03-19T03:21:39.709Z,-1.48
2018-03-19T03:22:39.768Z,-1.56
2018-03-19T03:23:39.672Z,-1.46
2018-03-19T03:24:39.642Z,-1.49
2018-03-19T03:25:39.624Z,-1.51
2018-03-19T03:26:39.599Z,-1.54
2018-03-19T03:27:40.499Z,-1.55
2018-03-19T03:28:39.606Z,-1.51
2018-03-19T03:29:39.529Z,-1.46
2018-03-19T03:30:39.517Z,-1.51
2018-03-19T03:31:39.500Z,-1.54
2018-03-19T03:32:39.476Z,-1.55
2018-03-19T03:33:39.460Z,-1.52
2018-03-19T03:37:19.843Z,-1.48
2018-03-19T03:38:18.740Z,-1.49
2018-03-19T03:39:18.723Z,-1.56
2018-03-19T03:40:18.719Z,-1.62
2018-03-19T03:41:18.688Z,-1.61
2018-03-19T03:42:18.649Z,-1.61
2018-03-19T03:43:19.600Z,-1.70
2018-03-19T03:44:18.614Z,-1.64
2018-03-19T03:45:18.580Z,-1.66
2018-03-19T03:46:18.572Z,-1.61
2018-03-19T03:47:18.551Z,-1.70
2018-03-19T03:48:18.597Z,-1.76
2018-03-19T03:49:18.494Z,-1.73
2018-03-19T03:50:18.475Z,-1.69
2018-03-19T03:51:18.456Z,-1.70
2018-03-19T03:52:19.100Z,-1.72
2018-03-19T03:53:18.410Z,-1.69
2018-03-19T03:54:18.426Z,-1.72
2018-03-19T03:55:18.384Z,-1.74
2018-03-19T03:56:18.364Z,-1.79
2018-03-19T03:57:19.097Z,-1.74
2018-03-19T03:58:18.315Z,-1.80
2018-03-19T03:59:18.356Z,-1.73
2018-03-19T04:00:18.273Z,-1.73
2018-03-19T04:01:18.245Z,-1.67
2018-03-19T04:02:18.221Z,-1.72
2018-03-19T04:03:18.216Z,-1.76
2018-03-19T04:04:18.184Z,-1.64
2018-03-19T04:05:18.168Z,-1.67
2018-03-19T04:06:18.139Z,-1.67
2018-03-19T04:07:18.119Z,-1.73
2018-03-19T04:08:18.109Z,-1.73
2018-03-19T04:09:18.082Z,-1.70
2018-03-19T04:10:18.125Z,-1.70
2018-03-19T04:11:18.031Z,-1.72
2018-03-19T04:12:18.019Z,-1.73
2018-03-19T04:13:17.990Z,-1.72
2018-03-19T04:14:17.994Z,-1.73
2018-03-19T04:15:17.957Z,-1.74
2018-03-19T04:16:17.955Z,-1.76
2018-03-19T04:17:17.953Z,-1.73
2018-03-19T04:18:17.884Z,-1.85
2018-03-19T04:19:17.880Z,-1.88
2018-03-19T04:20:17.840Z,-1.90
2018-03-19T04:21:17.831Z,-1.90
2018-03-19T04:22:18.017Z,-1.85
2018-03-19T04:23:17.782Z,-1.88
2018-03-19T04:24:17.770Z,-1.92
2018-03-19T04:25:17.769Z,-1.90
2018-03-19T04:26:17.713Z,-1.92
2018-03-19T04:27:17.766Z,-1.91
2018-03-19T04:28:17.679Z,-1.90
2018-03-19T04:29:17.655Z,-1.88
2018-03-19T04:30:17.640Z,-1.87
2018-03-19T04:31:17.608Z,-1.87
2018-03-19T04:32:17.589Z,-1.90
2018-03-19T04:33:17.644Z,-1.90
2018-03-19T04:34:17.543Z,-1.87
2018-03-19T04:35:17.531Z,-1.85
2018-03-19T04:36:17.504Z,-1.91
2018-03-19T04:37:17.485Z,-1.91
2018-03-19T04:38:17.460Z,-1.90
2018-03-19T04:39:17.448Z,-1.95
2018-03-19T04:40:17.416Z,-1.91
2018-03-19T04:41:17.405Z,-1.94
2018-03-19T04:42:17.367Z,-1.94
2018-03-19T04:43:17.346Z,-1.90
2018-03-19T04:44:17.386Z,-1.88
2018-03-19T04:45:17.313Z,-1.91
2018-03-19T04:46:17.284Z,-1.90
2018-03-19T04:47:17.268Z,-1.92
2018-03-19T04:48:17.255Z,-1.92
2018-03-19T04:49:17.221Z,-1.94
2018-03-19T04:50:17.285Z,-2.05
2018-03-19T04:51:17.184Z,-2.05
2018-03-19T04:52:17.173Z,-2.08
2018-03-19T04:53:17.138Z,-2.09
2018-03-19T04:54:17.120Z,-2.06
2018-03-19T04:55:17.101Z,-2.08
2018-03-19T04:56:17.130Z,-2.02
2018-03-19T04:57:17.049Z,-1.98
2018-03-19T04:58:17.034Z,-2.02
2018-03-19T04:59:17.006Z,-1.95
2018-03-19T05:00:16.997Z,-1.90
2018-03-19T05:01:16.976Z,-2.02
2018-03-19T05:02:17.001Z,-1.98
2018-03-19T05:03:16.930Z,-1.97
2018-03-19T05:04:16.898Z,-2.00
2018-03-19T05:05:16.899Z,-2.08
2018-03-19T05:06:16.861Z,-1.91
2018-03-19T05:07:16.847Z,-2.09
2018-03-19T05:08:16.883Z,-1.98
2018-03-19T05:09:16.799Z,-2.00
2018-03-19T05:10:16.772Z,-2.00
2018-03-19T05:11:16.797Z,-2.10
2018-03-19T05:12:16.729Z,-2.08
2018-03-19T05:13:16.707Z,-2.08
2018-03-19T05:14:16.702Z,-2.06
2018-03-19T05:15:16.721Z,-2.06
2018-03-19T05:16:16.657Z,-2.06
2018-03-19T05:17:16.663Z,-2.03
2018-03-19T05:18:16.614Z,-2.06
2018-03-19T05:19:16.580Z,-2.00
2018-03-19T05:20:16.564Z,-2.08
2018-03-19T05:21:16.546Z,-1.91
2018-03-19T05:22:16.582Z,-2.05
2018-03-19T05:23:16.511Z,-2.12
2018-03-19T05:24:16.483Z,-2.12
2018-03-19T05:25:16.448Z,-2.15
2018-03-19T05:26:16.435Z,-2.12
2018-03-19T05:27:16.416Z,-2.09
2018-03-19T05:28:16.430Z,-2.09
2018-03-19T05:29:16.363Z,-2.12
2018-03-19T05:30:16.387Z,-2.10
2018-03-19T05:31:16.321Z,-2.06
2018-03-19T05:32:16.298Z,-2.09
2018-03-19T05:33:16.286Z,-2.21
2018-03-19T05:34:16.266Z,-2.16
2018-03-19T05:35:16.255Z,-2.20
2018-03-19T05:36:16.219Z,-2.21
2018-03-19T05:37:16.202Z,-2.21
2018-03-19T05:38:16.195Z,-2.21
2018-03-19T05:39:16.149Z,-2.10
2018-03-19T05:40:16.142Z,-2.20
2018-03-19T05:41:16.174Z,-2.15
2018-03-19T05:42:16.082Z,-2.15
2018-03-19T05:43:16.064Z,-2.16
2018-03-19T05:44:16.059Z,-2.16
2018-03-19T05:45:16.032Z,-2.15
2018-03-19T05:46:16.006Z,-2.13
2018-03-19T05:47:16.038Z,-2.10
2018-03-19T05:48:15.962Z,-2.12
2018-03-19T05:49:15.945Z,-2.12
2018-03-19T05:50:15.924Z,-2.18
2018-03-19T05:51:15.892Z,-2.06
2018-03-19T05:52:15.876Z,-2.13
2018-03-19T05:53:15.856Z,-2.13
2018-03-19T05:54:15.832Z,-2.12
2018-03-19T05:55:15.818Z,-2.09
2018-03-19T05:56:15.849Z,-2.12
2018-03-19T05:57:15.770Z,-2.15
2018-03-19T05:58:15.738Z,-2.15
2018-03-19T05:59:15.784Z,-2.13
2018-03-19T06:00:15.702Z,-2.09
2018-03-19T06:01:15.676Z,-2.12
2018-03-19T06:02:15.702Z,-2.13
2018-03-19T06:03:15.645Z,-2.12
2018-03-19T06:04:15.621Z,-2.16
2018-03-19T06:05:15.603Z,-2.16
2018-03-19T06:06:15.606Z,-2.18
2018-03-19T06:07:15.559Z,-2.13
2018-03-19T06:08:15.531Z,-2.15
2018-03-19T06:09:15.515Z,-2.09
2018-03-19T06:10:15.489Z,-2.08
2018-03-19T06:11:15.469Z,-2.06
2018-03-19T06:12:15.458Z,-2.10
2018-03-19T06:13:15.461Z,-2.03
2018-03-19T06:14:15.409Z,-2.08
2018-03-19T06:15:15.392Z,-2.08
2018-03-19T06:16:15.395Z,-2.06
2018-03-19T06:17:15.333Z,-2.08
2018-03-19T06:18:15.324Z,-2.10
2018-03-19T06:19:15.334Z,-2.08
2018-03-19T06:20:15.289Z,-2.08
2018-03-19T06:21:15.325Z,-2.06
2018-03-19T06:22:15.232Z,-2.02
2018-03-19T06:23:15.211Z,-2.05
2018-03-19T06:24:15.198Z,-2.02
2018-03-19T06:25:15.180Z,-1.95
2018-03-19T06:26:15.148Z,-1.92
2018-03-19T06:27:15.151Z,-1.91
2018-03-19T06:28:15.104Z,-1.87
2018-03-19T06:29:15.089Z,-1.87
2018-03-19T06:30:15.109Z,-1.82
2018-03-19T06:31:15.047Z,-1.87
2018-03-19T06:32:15.046Z,-1.92
2018-03-19T06:33:15.003Z,-1.94
2018-03-19T06:34:14.990Z,-1.91
2018-03-19T06:35:14.966Z,-1.76
2018-03-19T06:36:14.934Z,-1.72
2018-03-19T06:37:14.955Z,-1.74
2018-03-19T06:38:14.905Z,-1.76
2018-03-19T06:39:14.882Z,-1.74
2018-03-19T06:40:14.847Z,-1.70
2018-03-19T06:41:14.838Z,-1.72
2018-03-19T06:42:14.829Z,-1.72
2018-03-19T06:43:14.794Z,-1.76
2018-03-19T06:44:14.776Z,-1.73
2018-03-19T06:45:14.765Z,-1.70
2018-03-19T06:46:14.724Z,-1.69
2018-03-19T06:47:14.707Z,-1.69
2018-03-19T06:48:14.682Z,-1.73
2018-03-19T06:49:14.665Z,-1.70
2018-03-19T06:50:14.692Z,-1.62
2018-03-19T06:51:14.634Z,-1.56
2018-03-19T06:52:14.616Z,-1.59
2018-03-19T06:53:14.572Z,-1.49
2018-03-19T06:54:14.551Z,-1.46
2018-03-19T06:55:14.541Z,-1.48
2018-03-19T06:56:14.542Z,-1.52
2018-03-19T06:57:14.500Z,-1.55
2018-03-19T06:58:14.469Z,-1.51
2018-03-19T06:59:14.459Z,-1.48
2018-03-19T07:00:14.436Z,-1.58
2018-03-19T07:01:14.444Z,-1.64
2018-03-19T07:02:14.394Z,-1.66
2018-03-19T07:03:14.374Z,-1.61
2018-03-19T07:04:14.356Z,-1.62
2018-03-19T07:05:14.329Z,-1.52
2018-03-19T07:06:14.331Z,-1.52
2018-03-19T07:07:14.280Z,-1.55
2018-03-19T07:08:14.262Z,-1.51
2018-03-19T07:09:14.247Z,-1.56
2018-03-19T07:10:14.221Z,-1.49
2018-03-19T07:11:14.234Z,-1.46
2018-03-19T07:12:14.177Z,-1.38
2018-03-19T07:13:14.160Z,-1.40
2018-03-19T07:14:14.150Z,-1.35
2018-03-19T07:15:14.125Z,-1.35
2018-03-19T07:16:14.103Z,-1.34
2018-03-19T07:17:14.117Z,-1.31
2018-03-19T07:18:14.057Z,-1.33
2018-03-19T07:19:14.038Z,-1.27
2018-03-19T07:20:14.013Z,-1.28
2018-03-19T07:21:13.994Z,-1.22
2018-03-19T07:22:13.977Z,-1.23
2018-03-19T07:23:13.994Z,-1.22
2018-03-19T07:24:13.945Z,-1.28
2018-03-19T07:25:13.913Z,-1.20
2018-03-19T07:26:14.072Z,-1.31
2018-03-19T07:27:13.920Z,-1.17
2018-03-19T07:28:14.427Z,-1.25
2018-03-19T07:29:13.839Z,-1.22
2018-03-19T07:32:39.814Z,-1.04
2018-03-19T07:33:42.156Z,-1.05
2018-03-19T07:34:39.825Z,-1.07
2018-03-19T07:35:39.731Z,-1.02
2018-03-19T07:36:39.715Z,-1.02
2018-03-19T07:37:39.692Z,-1.07
2018-03-19T07:38:39.669Z,-1.02
2018-03-19T07:39:39.649Z,-1.04
2018-03-19T07:40:39.665Z,-1.07
2018-03-19T07:41:39.606Z,-1.19
2018-03-19T07:42:39.648Z,-1.19
2018-03-19T07:43:39.570Z,-1.09
2018-03-19T07:44:39.549Z,-1.05
2018-03-19T07:45:39.529Z,-1.02
2018-03-19T07:46:39.505Z,-0.94
2018-03-19T07:47:39.483Z,-0.95
2018-03-19T07:48:39.494Z,-0.89
2018-03-19T07:49:39.448Z,-0.98
2018-03-19T07:50:39.423Z,-0.83
2018-03-19T07:51:39.406Z,-0.97
2018-03-19T07:52:39.443Z,-0.98
2018-03-19T07:53:39.364Z,-0.91
2018-03-19T07:54:39.343Z,-0.86
2018-03-19T07:55:39.350Z,-0.95
2018-03-19T07:56:39.308Z,-0.92
2018-03-19T07:57:39.284Z,-0.97
2018-03-19T07:58:39.265Z,-0.82
2018-03-19T07:59:39.243Z,-0.85
2018-03-19T08:00:39.219Z,-0.78
2018-03-19T08:01:39.209Z,-0.76
2018-03-19T08:02:39.188Z,-0.69
2018-03-19T08:03:39.166Z,-0.67
2018-03-19T08:06:35.667Z,-0.65
2018-03-19T08:07:07.806Z,-0.62
2018-03-19T08:08:07.812Z,-0.55
2018-03-19T08:09:07.751Z,-0.55
2018-03-19T08:10:07.721Z,-0.55
2018-03-19T08:11:07.707Z,-0.54
2018-03-19T08:12:07.776Z,-0.60
2018-03-19T08:13:07.701Z,-0.47
2018-03-19T08:14:07.652Z,-0.42
2018-03-19T08:15:07.651Z,-0.43
2018-03-19T08:16:07.607Z,-0.54
2018-03-19T08:17:07.591Z,-0.51
2018-03-19T08:18:07.570Z,-0.54
2018-03-19T08:19:07.579Z,-0.49
2018-03-19T08:20:07.525Z,-0.51
2018-03-19T08:21:07.507Z,-0.52
2018-03-19T08:22:07.484Z,-0.31
2018-03-19T08:23:07.465Z,-0.39
2018-03-19T08:24:07.471Z,-0.33
2018-03-19T08:25:07.429Z,-0.43
2018-03-19T08:26:07.401Z,-0.34
2018-03-19T08:27:07.452Z,-0.40
2018-03-19T08:28:07.375Z,-0.36
2018-03-19T08:29:07.343Z,-0.33
2018-03-19T08:30:07.324Z,-0.44
2018-03-19T08:31:07.315Z,-0.44
2018-03-19T08:32:07.293Z,-0.37
2018-03-19T08:33:07.277Z,-0.36
2018-03-19T08:34:07.251Z,-0.29
2018-03-19T08:35:07.237Z,-0.31
2018-03-19T08:36:07.221Z,-0.37
2018-03-19T08:37:07.235Z,-0.28
2018-03-19T08:38:07.161Z,-0.25
2018-03-19T08:39:07.148Z,-0.25
2018-03-19T08:40:07.132Z,-0.25
2018-03-19T08:41:07.116Z,-0.26
2018-03-19T08:42:07.087Z,-0.10
2018-03-19T08:43:07.070Z,-0.07
2018-03-19T08:44:07.079Z,-0.08
2018-03-19T08:45:07.040Z,0.00
2018-03-19T08:46:07.018Z,-0.01
2018-03-19T08:47:06.992Z,-0.04
2018-03-19T08:48:06.973Z,0.04
2018-03-19T08:49:06.986Z,0.00
2018-03-19T08:50:06.929Z,0.07
2018-03-19T08:51:06.918Z,0.11
2018-03-19T08:52:06.896Z,0.04
2018-03-19T08:53:06.875Z,0.20
2018-03-19T08:54:06.908Z,0.17
2018-03-19T08:55:06.834Z,0.36
2018-03-19T08:56:06.808Z,0.28
2018-03-19T08:57:06.788Z,0.38
2018-03-19T08:58:06.768Z,0.32
2018-03-19T09:02:20.914Z,0.31
2018-03-19T09:03:20.784Z,0.32
2018-03-19T09:04:20.809Z,0.33
2018-03-19T09:05:20.729Z,0.31
2018-03-19T09:06:20.995Z,0.36
2018-03-19T09:07:20.718Z,0.36
2018-03-19T09:08:20.673Z,0.44
2018-03-19T09:09:20.655Z,0.49
2018-03-19T09:10:20.642Z,0.58
2018-03-19T09:11:20.623Z,0.55
2018-03-19T09:12:20.664Z,0.58
2018-03-19T09:13:20.579Z,0.62
2018-03-19T09:14:20.557Z,0.68
2018-03-19T09:15:20.544Z,0.65
2018-03-19T09:16:20.526Z,0.73
2018-03-19T09:17:20.499Z,0.68
2018-03-19T09:18:20.496Z,0.70
2018-03-19T09:19:20.479Z,0.65
2018-03-19T09:20:20.448Z,0.65
2018-03-19T09:21:20.463Z,0.61
2018-03-19T09:22:20.406Z,0.75
2018-03-19T09:23:20.431Z,0.78
2018-03-19T09:24:20.395Z,0.86
2018-03-19T09:25:20.422Z,0.90
2018-03-19T09:40:25.885Z,1.36
2018-03-19T09:41:25.909Z,1.36
2018-03-19T09:42:25.835Z,1.42
2018-03-19T09:43:25.889Z,1.41
2018-03-19T09:44:25.775Z,1.48
2018-03-19T10:10:36.414Z,1.60
2018-03-19T10:11:36.401Z,1.69
2018-03-19T10:12:36.536Z,1.72
2018-03-19T10:13:36.472Z,1.73
2018-03-19T10:14:36.203Z,1.72
2018-03-19T10:15:36.258Z,1.76
2018-03-19T10:16:36.283Z,1.73
2018-03-19T10:25:08.657Z,2.06
2018-03-19T10:26:08.592Z,2.05
2018-03-19T10:27:08.582Z,1.98
2018-03-19T10:28:08.619Z,2.14
2018-03-19T10:29:08.542Z,2.14
2018-03-19T10:30:08.524Z,2.12
2018-03-19T10:31:08.509Z,2.23
2018-03-19T10:32:08.492Z,2.24
2018-03-19T10:36:54.684Z,2.54
2018-03-19T10:37:54.633Z,2.61
2018-03-19T10:38:54.633Z,2.54
2018-03-19T10:39:57.994Z,2.63
2018-03-19T10:40:55.028Z,2.64
2018-03-19T10:41:54.579Z,2.71
2018-03-19T10:42:54.549Z,2.79
2018-03-19T10:43:54.540Z,2.77
2018-03-19T10:44:54.530Z,2.78
2018-03-19T10:45:54.514Z,2.81
2018-03-19T10:46:54.485Z,2.79
2018-03-19T10:47:54.478Z,2.79
2018-03-19T10:48:54.500Z,2.95
2018-03-19T10:49:54.524Z,2.95
2018-03-19T10:50:54.431Z,3.14
2018-03-19T10:51:54.417Z,3.26
2018-03-19T10:52:54.459Z,3.39
2018-03-19T10:53:54.410Z,3.57
2018-03-19T11:10:15.396Z,4.22
2018-03-19T11:11:15.399Z,4.12
2018-03-19T11:12:15.399Z,4.16
2018-03-19T11:13:15.353Z,4.12
2018-03-19T11:14:15.843Z,4.15
2018-03-19T11:16:42.322Z,4.22
2018-03-19T11:17:09.884Z,4.30
2018-03-19T11:17:42.834Z,4.36
2018-03-19T11:18:42.853Z,4.36
2018-03-19T11:19:42.816Z,4.47
2018-03-19T11:23:15.972Z,4.82
2018-03-19T11:24:15.296Z,4.91
2018-03-19T11:30:40.551Z,4.88
2018-03-19T11:31:40.508Z,4.89
2018-03-19T11:32:40.518Z,4.88
2018-03-19T11:33:40.483Z,5.06
2018-03-19T11:34:40.461Z,5.15
2018-03-19T11:35:40.452Z,5.31
2018-03-19T11:36:40.443Z,5.46
2018-03-19T11:37:40.423Z,5.40
2018-03-19T11:38:40.842Z,5.51
2018-03-19T11:39:40.402Z,5.68
2018-03-19T11:40:40.398Z,5.74
2018-03-19T11:41:40.378Z,5.75
2018-03-19T11:42:40.360Z,5.86
2018-03-19T11:43:40.343Z,5.89
2018-03-19T11:44:40.373Z,5.81
2018-03-19T11:45:40.352Z,5.83
2018-03-19T11:46:40.315Z,5.78
2018-03-19T11:47:40.298Z,5.85
2018-03-19T11:48:40.288Z,5.91
2018-03-19T11:49:40.275Z,5.93
2018-03-19T11:50:40.293Z,5.89
2018-03-19T11:51:40.249Z,5.86
2018-03-19T11:52:40.243Z,5.90
2018-03-19T11:53:40.233Z,5.99
2018-03-19T11:54:40.218Z,6.00
2018-03-19T11:55:40.240Z,6.04
2018-03-19T11:56:40.223Z,6.04
2018-03-19T11:57:40.212Z,6.08
2018-03-19T11:58:40.172Z,6.11
2018-03-19T11:59:40.165Z,6.25
2018-03-19T12:00:40.156Z,6.33
2018-03-19T12:01:40.132Z,6.41
2018-03-19T12:02:40.157Z,6.58
2018-03-19T12:03:40.120Z,6.73
2018-03-19T12:04:40.111Z,6.97
2018-03-19T12:05:40.290Z,7.06
2018-03-19T12:06:40.081Z,7.24
2018-03-19T12:07:40.138Z,7.37
2018-03-19T12:08:40.105Z,7.50
2018-03-19T12:09:40.065Z,7.55
2018-03-19T12:10:40.093Z,7.71
2018-03-19T12:11:40.042Z,7.74
2018-03-19T12:12:40.034Z,7.74
2018-03-19T12:13:40.032Z,7.83
2018-03-19T12:14:40.019Z,7.79
2018-03-19T12:15:40.067Z,7.87
2018-03-19T12:16:40.001Z,8.00
2018-03-19T12:17:39.995Z,8.07
2018-03-19T12:18:39.985Z,8.12
2018-03-19T12:19:39.980Z,8.11
2018-03-19T12:20:39.974Z,8.10
2018-03-19T12:21:40.025Z,8.23
2018-03-19T12:22:39.957Z,8.05
2018-03-19T12:23:39.955Z,8.04
2018-03-19T12:24:39.943Z,7.87
2018-03-19T12:25:41.878Z,7.74
2018-03-19T12:26:39.932Z,7.63
2018-03-19T12:27:39.975Z,7.52
2018-03-19T12:30:48.137Z,7.40
2018-03-19T12:31:18.539Z,7.34
2018-03-19T12:32:18.561Z,7.45
2018-03-19T12:33:18.562Z,7.49
2018-03-19T12:34:18.517Z,7.58
2018-03-19T12:37:30.178Z,7.77
2018-03-19T12:38:30.209Z,7.72
2018-03-19T12:39:30.280Z,7.83
2018-03-19T12:43:10.989Z,7.31
2018-03-19T12:44:07.891Z,7.16
2018-03-19T12:45:07.776Z,7.25
2018-03-19T12:46:57.042Z,7.25
2018-03-19T12:47:07.749Z,7.40
2018-03-19T12:48:08.921Z,7.39
2018-03-19T12:49:07.738Z,7.49
2018-03-19T12:50:07.740Z,7.50
2018-03-19T12:51:08.219Z,7.69
2018-03-19T12:52:07.906Z,7.83
2018-03-19T12:53:07.732Z,8.07
2018-03-19T12:54:07.696Z,8.10
2018-03-19T12:55:07.706Z,8.08
2018-03-19T12:56:07.728Z,8.37
2018-03-19T12:57:07.663Z,8.55
2018-03-19T12:58:07.645Z,8.73
2018-03-19T12:59:07.646Z,8.96
2018-03-19T13:00:07.628Z,9.28
2018-03-19T13:01:07.624Z,9.50
2018-03-19T13:02:07.658Z,9.74
2018-03-19T13:03:07.610Z,9.83
2018-03-19T13:04:07.607Z,9.81
2018-03-19T13:05:07.600Z,9.81
2018-03-19T13:06:07.594Z,9.89
2018-03-19T13:07:07.650Z,9.94
2018-03-19T13:08:07.587Z,9.89
2018-03-19T13:09:07.581Z,9.83
2018-03-19T13:10:07.574Z,9.60
2018-03-19T13:11:07.559Z,9.48
2018-03-19T13:12:07.553Z,9.35
2018-03-19T13:13:07.600Z,9.05
2018-03-19T13:14:07.548Z,8.95
2018-03-19T13:15:07.540Z,8.74
2018-03-19T13:16:07.524Z,8.53
2018-03-19T13:17:07.514Z,8.45
2018-03-19T13:18:07.525Z,8.50
2018-03-19T13:19:07.566Z,8.62
2018-03-19T13:20:07.494Z,8.79
2018-03-19T13:21:07.490Z,8.89
2018-03-19T13:22:07.470Z,8.95
2018-03-19T13:23:07.466Z,8.96
2018-03-19T13:24:07.534Z,9.04
2018-03-19T13:25:07.486Z,8.98
2018-03-19T13:26:07.781Z,9.02
2018-03-19T13:27:08.112Z,8.89
2018-03-19T13:28:07.428Z,8.91
2018-03-19T13:29:07.421Z,8.92
2018-03-19T13:30:07.490Z,9.05
2018-03-19T13:31:07.412Z,9.23
2018-03-19T13:32:07.405Z,9.32
2018-03-19T13:33:07.389Z,9.43
2018-03-19T13:34:07.384Z,9.50
2018-03-19T13:35:07.375Z,9.51
2018-03-19T13:36:07.394Z,9.50
2018-03-19T13:37:07.349Z,9.33
2018-03-19T13:38:07.350Z,9.17
2018-03-19T13:39:07.327Z,9.08
2018-03-19T13:40:07.382Z,9.08
2018-03-19T13:41:08.340Z,8.99
2018-03-19T13:42:07.932Z,9.11
2018-03-19T13:43:07.299Z,9.08
2018-03-19T13:44:08.051Z,9.13
2018-03-19T13:45:07.275Z,9.08
2018-03-19T13:46:07.325Z,9.32
2018-03-19T13:47:07.310Z,9.57
2018-03-19T13:48:07.315Z,9.65
2018-03-19T13:49:07.293Z,9.72
2018-03-19T13:50:07.330Z,9.87
2018-03-19T13:51:07.335Z,10.08
2018-03-19T13:52:07.262Z,10.15
2018-03-19T13:53:07.246Z,10.22
2018-03-19T13:54:07.325Z,10.27
2018-03-19T13:55:07.234Z,10.60
2018-03-19T13:56:07.253Z,10.86
2018-03-19T13:57:07.218Z,11.14
2018-03-19T13:58:07.315Z,11.52
2018-03-19T13:59:07.270Z,11.98
2018-03-19T14:00:07.601Z,12.17
2018-03-19T14:04:24.478Z,12.10
2018-03-19T14:05:24.616Z,11.99
2018-03-19T14:06:24.445Z,12.02
2018-03-19T14:07:24.433Z,12.04
2018-03-19T14:08:24.494Z,12.05
2018-03-19T14:09:24.432Z,12.09
2018-03-19T14:10:24.554Z,12.07
2018-03-19T14:11:24.621Z,12.01
2018-03-19T14:12:24.413Z,12.05
2018-03-19T14:13:24.434Z,12.05
2018-03-19T14:14:24.390Z,12.28
2018-03-19T14:15:24.402Z,12.38
2018-03-19T14:16:24.376Z,12.37
2018-03-19T14:17:24.439Z,12.19
2018-03-19T14:18:24.448Z,12.20
2018-03-19T14:19:24.380Z,12.35
2018-03-19T14:20:24.654Z,12.39
2018-03-19T14:21:24.406Z,12.45
2018-03-19T14:22:24.400Z,12.57
2018-03-19T14:23:24.444Z,12.74
2018-03-19T14:24:24.480Z,12.92
2018-03-19T14:25:24.417Z,12.83
2018-03-19T14:26:24.377Z,12.54
2018-03-19T14:27:24.380Z,12.39
2018-03-19T14:28:24.379Z,12.50
2018-03-19T14:29:24.352Z,12.85
2018-03-19T14:30:24.359Z,13.25
2018-03-19T14:31:24.345Z,13.42
2018-03-19T14:32:24.375Z,13.67
2018-03-19T14:33:25.438Z,13.85